Time;durP1;ratioP1;P1;durP2;ratioP2;P2;SDS_P1;SDS_P2;PMS_P1;PMS_P2;Temp;Humidity;BMP_temperature;BMP_pressure;BME280_temperature;BME280_humidity;BME280_pressure;Samples;Min_cycle;Max_cycle;Signal;HPM_P1;HPM_P2
2022/07/25 00:01:18;;;;;;;1999.90;999.90;;;;;;;25.37;48.39;95353.53;5010673;28;20026;-69
2022/07/25 00:03:44;;;;;;;1999.90;999.90;;;;;;;25.32;48.49;95347.72;5011206;28;20026;-70
2022/07/25 00:06:09;;;;;;;1999.90;999.90;;;;;;;25.14;48.48;95317.84;5027694;28;20377;-69
2022/07/25 00:08:34;;;;;;;1999.90;999.90;;;;;;;25.22;48.58;95335.69;5011387;28;20482;-70
2022/07/25 00:10:59;;;;;;;1999.90;999.90;;;;;;;25.16;48.78;95331.84;5026984;28;20525;-69
2022/07/25 00:13:25;;;;;;;1999.90;999.90;;;;;;;25.28;48.80;95344.22;5028971;28;20470;-69
2022/07/25 00:15:50;;;;;;;1999.90;999.90;;;;;;;25.19;48.69;95330.28;5010448;28;20017;-69
2022/07/25 00:18:15;;;;;;;1999.90;999.90;;;;;;;25.05;48.83;95314.72;5011559;28;20029;-69
2022/07/25 00:20:41;;;;;;;1999.90;999.90;;;;;;;25.07;48.88;95328.75;5028068;28;20096;-70
2022/07/25 00:23:06;;;;;;;1999.90;999.90;;;;;;;25.15;48.76;95333.00;5028889;28;20087;-70
2022/07/25 00:25:31;;;;;;;1999.90;999.90;;;;;;;25.19;49.18;95336.50;5024118;28;20061;-69
2022/07/25 00:27:57;;;;;;;1999.90;999.90;;;;;;;25.18;49.49;95345.03;5028320;28;20076;-70
2022/07/25 00:30:22;;;;;;;1999.90;999.90;;;;;;;25.00;49.28;95324.06;5028097;28;20682;-69
2022/07/25 00:32:47;;;;;;;1999.90;999.90;;;;;;;24.51;49.64;95256.91;5010939;28;20021;-70
2022/07/25 00:35:13;;;;;;;1999.90;999.90;;;;;;;25.00;49.57;95337.69;5013207;28;20374;-70
2022/07/25 00:37:38;;;;;;;1999.90;999.90;;;;;;;24.96;49.85;95323.28;5013699;28;20024;-69
2022/07/25 00:40:04;;;;;;;1999.90;999.90;;;;;;;24.96;49.83;95336.13;5032976;28;20029;-69
2022/07/25 00:42:29;;;;;;;1999.90;999.90;;;;;;;24.77;50.33;95310.09;5031827;28;20504;-69
2022/07/25 00:44:55;;;;;;;1999.90;999.90;;;;;;;24.61;50.26;95284.09;5031851;28;20116;-69
2022/07/25 00:47:20;;;;;;;1999.90;999.90;;;;;;;24.62;50.48;95298.50;5031892;28;20029;-69
2022/07/25 00:49:46;;;;;;;1999.90;999.90;;;;;;;24.71;50.55;95317.88;5012034;28;20055;-70
2022/07/25 00:52:11;;;;;;;1999.90;999.90;;;;;;;24.74;50.63;95332.66;5032145;28;20037;-69
2022/07/25 00:54:37;;;;;;;1999.90;999.90;;;;;;;24.72;50.80;95324.09;5028442;28;20084;-70
2022/07/25 00:57:02;;;;;;;1999.90;999.90;;;;;;;24.42;51.33;95289.19;5031489;28;20079;-69
2022/07/25 00:59:28;;;;;;;1999.90;999.90;;;;;;;24.67;50.97;95317.16;5031657;28;20032;-69
2022/07/25 01:01:53;;;;;;;1999.90;999.90;;;;;;;24.45;51.14;95291.09;5031369;28;20391;-69
2022/07/25 01:04:19;;;;;;;1999.90;999.90;;;;;;;24.61;51.24;95316.72;5012409;28;20473;-69
2022/07/25 01:06:44;;;;;;;1999.90;999.90;;;;;;;24.46;51.60;95293.44;5014704;28;20026;-69
2022/07/25 01:09:10;;;;;;;1999.90;999.90;;;;;;;24.42;51.58;95289.19;5030512;28;20030;-69
2022/07/25 01:11:35;;;;;;;1999.90;999.90;;;;;;;24.50;51.53;95301.59;5013907;28;20048;-69
2022/07/25 01:14:00;;;;;;;1999.90;999.90;;;;;;;24.43;51.71;95288.78;5031135;28;20028;-69
2022/07/25 01:16:26;;;;;;;1999.90;999.90;;;;;;;24.55;51.78;95312.09;5030818;28;20033;-69
2022/07/25 01:18:51;;;;;;;1999.90;999.90;;;;;;;24.52;51.91;95294.63;5031018;28;20037;-69
2022/07/25 01:21:16;;;;;;;1999.90;999.90;;;;;;;24.47;52.12;95297.72;5014149;28;20053;-69
2022/07/25 01:23:42;;;;;;;1999.90;999.90;;;;;;;24.48;51.99;95298.50;5028590;28;20375;-70
2022/07/25 01:26:07;;;;;;;1999.90;999.90;;;;;;;24.75;51.19;95293.41;5031326;28;20022;-69
2022/07/25 01:28:32;;;;;;;1999.90;999.90;;;;;;;24.82;51.35;95299.59;5030148;28;20132;-69
2022/07/25 01:30:58;;;;;;;1999.90;999.90;;;;;;;24.52;51.70;95304.72;5012414;28;20053;-69
2022/07/25 01:33:23;;;;;;;1999.90;999.90;;;;;;;24.48;52.55;95301.22;5013629;28;20071;-70
2022/07/25 01:35:49;;;;;;;1999.90;999.90;;;;;;;24.24;52.24;95267.41;5029405;28;20033;-69
2022/07/25 01:38:15;;;;;;;1999.90;999.90;;;;;;;24.09;52.64;95245.66;5012894;28;20428;-69
2022/07/25 01:40:41;;;;;;;1999.90;999.90;;;;;;;24.35;52.98;95290.72;5013718;28;20592;-69
2022/07/25 01:43:07;;;;;;;1999.90;999.90;;;;;;;24.27;53.19;95283.72;5031215;28;20474;-69
2022/07/25 01:45:32;;;;;;;1999.90;999.90;;;;;;;24.15;52.75;95264.28;5029388;28;20024;-70
2022/07/25 01:47:58;;;;;;;1999.90;999.90;;;;;;;24.30;53.40;95290.31;5030906;28;20091;-70
2022/07/25 01:50:23;;;;;;;1999.90;999.90;;;;;;;24.31;53.14;95292.66;5030456;28;20075;-69
2022/07/25 01:52:49;;;;;;;1999.90;999.90;;;;;;;24.17;53.20;95279.06;5030080;28;20022;-69
2022/07/25 01:55:14;;;;;;;1999.90;999.90;;;;;;;24.31;53.23;95289.94;5030752;28;20035;-69
2022/07/25 01:57:39;;;;;;;1999.90;999.90;;;;;;;24.26;53.31;95273.22;5031250;28;20025;-70
2022/07/25 02:00:08;;;;;;;1999.90;999.90;;;;;;;24.26;53.49;95286.81;5028886;28;20045;-70
2022/07/25 02:02:33;;;;;;;1999.90;999.90;;;;;;;24.23;53.33;95282.16;5030787;28;20021;-69
2022/07/25 02:04:58;;;;;;;1999.90;999.90;;;;;;;24.09;53.66;95272.81;5030353;28;20025;-69
2022/07/25 02:07:24;;;;;;;1999.90;999.90;;;;;;;24.05;54.12;95266.59;5030725;28;20097;-69
2022/07/25 02:09:49;;;;;;;1999.90;999.90;;;;;;;23.97;54.22;95250.72;5029611;28;20038;-69
2022/07/25 02:12:14;;;;;;;1999.90;999.90;;;;;;;23.83;53.94;95237.88;5011233;28;20047;-69
2022/07/25 02:14:40;;;;;;;1999.90;999.90;;;;;;;23.95;54.42;95269.31;5001599;28;20034;-68
2022/07/25 02:17:05;;;;;;;1999.90;999.90;;;;;;;23.69;54.23;95233.19;5009788;28;20033;-69
2022/07/25 02:19:31;;;;;;;1999.90;999.90;;;;;;;23.80;55.03;95263.88;5030543;28;20033;-69
2022/07/25 02:21:56;;;;;;;1999.90;999.90;;;;;;;23.66;55.09;95238.66;5030054;28;20034;-69
2022/07/25 02:24:21;;;;;;;1999.90;999.90;;;;;;;23.74;55.05;95243.69;5012013;28;20021;-69
2022/07/25 02:26:47;;;;;;;1999.90;999.90;;;;;;;23.85;55.22;95262.72;5029403;28;20029;-69
2022/07/25 02:29:12;;;;;;;1999.90;999.90;;;;;;;23.64;55.26;95230.88;5012763;28;20029;-69
2022/07/25 02:31:37;;;;;;;1999.90;999.90;;;;;;;23.62;55.16;95227.75;5012594;28;20048;-69
2022/07/25 02:34:03;;;;;;;1999.90;999.90;;;;;;;23.65;55.02;95247.94;5029435;28;20696;-69
2022/07/25 02:36:28;;;;;;;1999.90;999.90;;;;;;;23.67;55.45;95242.91;5029646;28;20064;-69
2022/07/25 02:38:54;;;;;;;1999.90;999.90;;;;;;;23.57;55.30;95236.25;5029780;28;20038;-69
2022/07/25 02:41:19;;;;;;;1999.90;999.90;;;;;;;23.57;55.40;95234.31;5011997;28;20438;-69
2022/07/25 02:43:45;;;;;;;1999.90;999.90;;;;;;;23.58;55.74;95235.09;5029556;28;20541;-69
2022/07/25 02:46:10;;;;;;;1999.90;999.90;;;;;;;23.59;55.42;95233.94;5028685;28;20140;-68
2022/07/25 02:48:35;;;;;;;1999.90;999.90;;;;;;;23.55;55.37;95242.09;5011873;28;20052;-69
2022/07/25 02:51:01;;;;;;;1999.90;999.90;;;;;;;23.63;55.62;95251.03;5011805;28;20469;-69
2022/07/25 02:53:26;;;;;;;1999.90;999.90;;;;;;;23.40;55.82;95216.06;5011780;28;20549;-69
2022/07/25 02:55:51;;;;;;;1999.90;999.90;;;;;;;23.56;55.66;95232.78;5012814;28;20052;-69
2022/07/25 02:58:16;;;;;;;1999.90;999.90;;;;;;;23.63;55.71;95250.22;5028492;28;20057;-69
2022/07/25 03:00:42;;;;;;;1999.90;999.90;;;;;;;23.37;55.86;95207.91;5029138;28;20036;-69
2022/07/25 03:03:07;;;;;;;1999.90;999.90;;;;;;;23.50;55.83;95238.97;5029908;28;20056;-69
2022/07/25 03:05:32;;;;;;;1999.90;999.90;;;;;;;23.56;56.12;95259.94;5028479;28;20056;-69
2022/07/25 03:07:58;;;;;;;1999.90;999.90;;;;;;;23.34;56.52;95229.25;5030111;28;20454;-69
2022/07/25 03:10:23;;;;;;;1999.90;999.90;;;;;;;23.29;56.41;95226.13;5028856;28;20030;-70
2022/07/25 03:12:48;;;;;;;1999.90;999.90;;;;;;;23.25;56.45;95233.47;5010962;28;20139;-70
2022/07/25 03:15:14;;;;;;;1999.90;999.90;;;;;;;23.17;56.60;95221.81;5029079;28;20025;-69
2022/07/25 03:17:40;;;;;;;1999.90;999.90;;;;;;;23.33;56.88;95252.09;5028773;28;20025;-70
2022/07/25 03:20:07;;;;;;;1999.90;999.90;;;;;;;23.39;56.82;95268.00;5011732;28;20382;-69
2022/07/25 03:22:33;;;;;;;1999.90;999.90;;;;;;;23.20;56.70;95244.69;5029411;28;20500;-70
2022/07/25 03:24:59;;;;;;;1999.90;999.90;;;;;;;23.15;57.08;95243.13;5011393;28;20029;-70
2022/07/25 03:27:25;;;;;;;1999.90;999.90;;;;;;;23.24;56.78;95238.13;5012004;28;20032;-69
2022/07/25 03:29:50;;;;;;;1999.90;999.90;;;;;;;23.24;56.94;95245.50;5011919;28;20453;-69
2022/07/25 03:32:15;;;;;;;1999.90;999.90;;;;;;;23.18;57.29;95244.28;5027082;28;20470;-69
2022/07/25 03:34:41;;;;;;;1999.90;999.90;;;;;;;23.17;57.33;95246.22;5011601;28;20587;-70
2022/07/25 03:37:06;;;;;;;1999.90;999.90;;;;;;;23.26;57.36;95248.59;5011376;28;20029;-69
2022/07/25 03:39:32;;;;;;;1999.90;999.90;;;;;;;23.29;57.08;95250.56;5029677;28;20034;-69
2022/07/25 03:41:57;;;;;;;1999.90;999.90;;;;;;;23.22;57.34;95237.72;5010655;28;20027;-69
2022/07/25 03:44:24;;;;;;;1999.90;999.90;;;;;;;23.18;57.36;95230.72;5028093;28;20131;-70
2022/07/25 03:46:50;;;;;;;1999.90;999.90;;;;;;;23.22;57.15;95231.50;5027692;28;20032;-69
2022/07/25 03:49:16;;;;;;;1999.90;999.90;;;;;;;23.29;56.81;95254.03;5029393;28;20064;-69
2022/07/25 03:51:42;;;;;;;1999.90;999.90;;;;;;;23.27;57.25;95248.19;5010858;28;20129;-70
2022/07/25 03:54:12;;;;;;;1999.90;999.90;;;;;;;23.19;57.01;95237.72;5029195;28;20096;-69
2022/07/25 03:56:43;;;;;;;1999.90;999.90;;;;;;;23.01;57.33;95213.22;5028524;28;20037;-69
2022/07/25 03:59:11;;;;;;;1999.90;999.90;;;;;;;23.14;57.39;95233.44;5029359;28;20514;-69
2022/07/25 04:01:37;;;;;;;1999.90;999.90;;;;;;;23.14;57.22;95222.59;5027364;28;20033;-69
2022/07/25 04:04:03;;;;;;;1999.90;999.90;;;;;;;23.12;57.13;95215.97;5011307;28;20032;-69
2022/07/25 04:06:29;;;;;;;1999.90;999.90;;;;;;;23.26;56.85;95227.66;5010332;28;20021;-69
2022/07/25 04:08:55;;;;;;;1999.90;999.90;;;;;;;23.46;56.44;95244.38;5011488;28;20116;-70
2022/07/25 04:11:21;;;;;;;1999.90;999.90;;;;;;;23.60;56.13;95259.94;5031299;28;20029;-69
2022/07/25 04:13:47;;;;;;;1999.90;999.90;;;;;;;23.70;56.06;95232.06;5033290;28;20032;-69
2022/07/25 04:16:12;;;;;;;1999.90;999.90;;;;;;;23.90;55.44;95250.69;5015723;28;20116;-69
2022/07/25 04:18:38;;;;;;;1999.90;999.90;;;;;;;23.81;54.82;95208.41;5033237;28;20478;-69
2022/07/25 04:21:03;;;;;;;1999.90;999.90;;;;;;;24.16;54.41;95233.22;5032630;28;20037;-70
2022/07/25 04:23:30;;;;;;;1999.90;999.90;;;;;;;24.07;53.97;95187.44;5032824;28;20068;-70
2022/07/25 04:25:56;;;;;;;1999.90;999.90;;;;;;;24.50;53.85;95234.38;5031344;28;20034;-69
2022/07/25 04:28:21;;;;;;;1999.90;999.90;;;;;;;24.56;53.54;95218.44;5032833;28;20026;-69
2022/07/25 04:30:46;;;;;;;1999.90;999.90;;;;;;;24.76;52.86;95216.84;5031408;28;20028;-70
2022/07/25 04:33:12;;;;;;;1999.90;999.90;;;;;;;25.05;52.09;95231.13;5031531;28;20112;-69
2022/07/25 04:35:38;;;;;;;1999.90;999.90;;;;;;;25.14;51.28;95225.31;5032172;28;20032;-69
2022/07/25 04:38:03;;;;;;;1999.90;999.90;;;;;;;25.34;51.26;95215.50;5031425;28;20540;-69
2022/07/25 04:40:29;;;;;;;1999.90;999.90;;;;;;;24.86;50.83;95134.41;5031621;28;20468;-69
2022/07/25 04:42:54;;;;;;;1999.90;999.90;;;;;;;25.60;50.43;95213.41;5032041;28;20040;-70
2022/07/25 04:45:19;;;;;;;1999.90;999.90;;;;;;;25.82;50.37;95233.91;5029616;28;20025;-70
2022/07/25 04:47:45;;;;;;;1999.90;999.90;;;;;;;25.96;49.56;95230.31;5023197;28;20029;-68
2022/07/25 04:50:10;;;;;;;1999.90;999.90;;;;;;;26.21;49.22;95230.09;5031575;28;20033;-69
2022/07/25 04:52:36;;;;;;;1999.90;999.90;;;;;;;26.52;48.49;95224.78;5030449;28;20083;-68
2022/07/25 04:55:02;;;;;;;1999.90;999.90;;;;;;;26.75;47.80;95222.19;5031651;28;20040;-70
2022/07/25 04:57:28;;;;;;;1999.90;999.90;;;;;;;26.85;47.31;95212.34;5031661;28;20468;-67
2022/07/25 04:59:53;;;;;;;1999.90;999.90;;;;;;;26.83;46.64;95182.75;5031421;28;20106;-64
2022/07/25 05:02:19;;;;;;;1999.90;999.90;;;;;;;26.98;46.27;95188.03;5011678;28;20029;-68
2022/07/25 05:04:44;;;;;;;1999.90;999.90;;;;;;;27.18;46.72;95205.38;5014728;28;20524;-68
2022/07/25 05:07:09;;;;;;;1999.90;999.90;;;;;;;27.30;46.25;95210.28;5029475;28;20045;-68
2022/07/25 05:09:35;;;;;;;1999.90;999.90;;;;;;;27.47;45.64;95214.72;5014848;28;20038;-66
2022/07/25 05:12:00;;;;;;;1999.90;999.90;;;;;;;26.93;45.55;95112.84;5030176;28;20022;-68
2022/07/25 05:14:25;;;;;;;1999.90;999.90;;;;;;;27.48;45.86;95194.41;5012810;28;20049;-69
2022/07/25 05:16:51;;;;;;;1999.90;999.90;;;;;;;27.69;45.18;95209.75;5030598;28;20018;-67
2022/07/25 05:19:16;;;;;;;1999.90;999.90;;;;;;;27.42;45.60;95157.03;5032541;28;20108;-67
2022/07/25 05:21:41;;;;;;;1999.90;999.90;;;;;;;27.85;44.98;95211.09;5029470;28;20464;-68
2022/07/25 05:24:08;;;;;;;1999.90;999.90;;;;;;;27.79;44.94;95188.91;5031841;28;20075;-69
2022/07/25 05:26:33;;;;;;;1999.90;999.90;;;;;;;27.84;44.61;95188.44;5011132;28;20040;-68
2022/07/25 05:28:58;;;;;;;1999.90;999.90;;;;;;;28.00;44.07;95206.97;5028837;28;20026;-68
2022/07/25 05:31:24;;;;;;;1999.90;999.90;;;;;;;28.07;44.53;95203.31;5031231;28;20113;-70
2022/07/25 05:33:49;;;;;;;1999.90;999.90;;;;;;;27.97;44.11;95175.75;5030911;28;20022;-69
2022/07/25 05:36:15;;;;;;;1999.90;999.90;;;;;;;28.06;44.26;95183.41;5031442;28;20056;-78
2022/07/25 05:38:41;;;;;;;1999.90;999.90;;;;;;;27.90;43.53;95140.31;5013588;28;20025;-69
2022/07/25 05:41:06;;;;;;;1999.90;999.90;;;;;;;28.42;43.79;95213.69;5023298;28;20018;-70
2022/07/25 05:43:31;;;;;;;1999.90;999.90;;;;;;;28.23;43.42;95181.56;5027712;28;20025;-73
2022/07/25 05:46:01;;;;;;;1999.90;999.90;;;;;;;28.41;43.58;95211.38;5029399;28;20084;-67
2022/07/25 05:48:26;;;;;;;1999.90;999.90;;;;;;;28.33;43.68;95188.03;5029930;28;20522;-70
2022/07/25 05:50:52;;;;;;;1999.90;999.90;;;;;;;28.32;42.96;95200.19;5031690;28;20025;-71
2022/07/25 05:53:17;;;;;;;1999.90;999.90;;;;;;;28.39;43.44;95206.31;4996529;28;20032;-69
2022/07/25 05:55:42;;;;;;;1999.90;999.90;;;;;;;27.78;43.62;95123.72;5030966;28;20025;-68
2022/07/25 05:58:08;;;;;;;1999.90;999.90;;;;;;;28.06;43.13;95166.25;5010849;28;20554;-69
2022/07/25 06:00:33;;;;;;;1999.90;999.90;;;;;;;28.25;43.44;95201.06;5030865;28;20026;-69
2022/07/25 06:03:00;;;;;;;1999.90;999.90;;;;;;;28.15;42.79;95185.59;5010244;28;20089;-69
2022/07/25 06:05:26;;;;;;;1999.90;999.90;;;;;;;28.27;43.11;95203.38;5028788;28;20049;-69
2022/07/25 06:07:51;;;;;;;1999.90;999.90;;;;;;;28.17;43.15;95177.75;5031608;28;20493;-70
2022/07/25 06:10:16;;;;;;;1999.90;999.90;;;;;;;28.40;43.32;95199.66;5031313;28;20053;-70
2022/07/25 06:12:42;;;;;;;1999.90;999.90;;;;;;;27.99;42.93;95121.41;5011592;28;20056;-69
2022/07/25 06:15:08;;;;;;;1999.90;999.90;;;;;;;28.29;42.96;95146.28;5030998;28;20079;-70
2022/07/25 06:17:33;;;;;;;1999.90;999.90;;;;;;;28.69;42.77;95194.44;5031508;28;20017;-69
2022/07/25 06:19:59;;;;;;;1999.90;999.90;;;;;;;28.86;42.75;95198.00;5031458;28;20021;-67
2022/07/25 06:22:25;;;;;;;1999.90;999.90;;;;;;;28.67;42.58;95155.78;5031021;28;20494;-70
2022/07/25 06:24:50;;;;;;;1999.90;999.90;;;;;;;28.72;42.08;95166.22;5031206;28;20017;-68
2022/07/25 06:27:15;;;;;;;1999.90;999.90;;;;;;;29.14;42.05;95206.91;5029626;28;20033;-69
2022/07/25 06:29:40;;;;;;;1999.90;999.90;;;;;;;29.23;41.84;95198.91;5031439;28;20229;-69
2022/07/25 06:32:06;;;;;;;1999.90;999.90;;;;;;;29.33;41.45;95200.63;5029755;28;20049;-69
2022/07/25 06:34:31;;;;;;;1999.90;999.90;;;;;;;29.45;41.82;95194.50;5029830;28;20032;-69
2022/07/25 06:36:57;;;;;;;1999.90;999.90;;;;;;;29.39;41.28;95159.81;5031171;28;20538;-69
2022/07/25 06:39:22;;;;;;;1999.90;999.90;;;;;;;29.38;41.00;95142.59;5029583;28;20521;-68
2022/07/25 06:41:48;;;;;;;1999.90;999.90;;;;;;;29.75;40.85;95189.94;5030842;28;20489;-68
2022/07/25 06:44:13;;;;;;;1999.90;999.90;;;;;;;29.85;40.44;95185.41;5027587;28;20121;-70
2022/07/25 06:46:39;;;;;;;1999.90;999.90;;;;;;;29.47;40.32;95117.31;5029399;28;20109;-71
2022/07/25 06:49:04;;;;;;;1999.90;999.90;;;;;;;29.45;40.20;95104.06;5030850;28;20041;-69
2022/07/25 06:51:29;;;;;;;1999.90;999.90;;;;;;;30.06;40.26;95186.88;5030632;28;20053;-69
2022/07/25 06:53:55;;;;;;;1999.90;999.90;;;;;;;30.02;39.91;95173.22;5029260;28;20450;-69
2022/07/25 06:56:21;;;;;;;1999.90;999.90;;;;;;;29.87;39.60;95141.88;5029406;28;20036;-69
2022/07/25 06:58:46;;;;;;;1999.90;999.90;;;;;;;30.04;39.61;95148.88;5029794;28;20049;-68
2022/07/25 07:01:12;;;;;;;1999.90;999.90;;;;;;;30.33;39.31;95186.59;5030434;28;20037;-69
2022/07/25 07:03:38;;;;;;;1999.90;999.90;;;;;;;29.70;39.17;95081.56;5028924;28;20033;-69
2022/07/25 07:06:05;;;;;;;1999.90;999.90;;;;;;;30.00;39.48;95151.72;5028512;28;20033;-69
2022/07/25 07:08:30;;;;;;;1999.90;999.90;;;;;;;29.61;39.56;95108.03;5011514;28;20033;-69
2022/07/25 07:10:55;;;;;;;1999.90;999.90;;;;;;;29.71;40.11;95116.00;5030291;28;20033;-69
2022/07/25 07:13:22;;;;;;;1999.90;999.90;;;;;;;29.97;39.26;95130.63;5027357;28;20035;-69
2022/07/25 07:15:49;;;;;;;1999.90;999.90;;;;;;;30.50;39.36;95166.91;5030288;28;20021;-69
2022/07/25 07:18:15;;;;;;;1999.90;999.90;;;;;;;29.13;41.68;95153.31;5012792;28;20163;-69
2022/07/25 07:20:40;;;;;;;1999.90;999.90;;;;;;;29.40;41.11;95123.75;5029310;28;20036;-69
2022/07/25 07:23:06;;;;;;;1999.90;999.90;;;;;;;29.57;40.58;95088.16;5028805;28;20533;-69
2022/07/25 07:25:32;;;;;;;1999.90;999.90;;;;;;;30.16;40.05;95131.00;5029804;28;20032;-69
2022/07/25 07:27:57;;;;;;;1999.90;999.90;;;;;;;30.20;40.25;95165.38;5028015;28;20033;-70
2022/07/25 07:30:23;;;;;;;1999.90;999.90;;;;;;;29.63;40.78;95100.16;5017249;28;20040;-70
2022/07/25 07:32:48;;;;;;;1999.90;999.90;;;;;;;28.17;43.26;95091.03;5011870;28;20465;-70
2022/07/25 07:35:15;;;;;;;1999.90;999.90;;;;;;;29.04;42.26;95128.47;5030305;28;20021;-69
2022/07/25 07:37:42;;;;;;;1999.90;999.90;;;;;;;29.34;41.67;95089.84;5028950;28;20457;-69
2022/07/25 07:40:08;;;;;;;1999.90;999.90;;;;;;;29.89;41.27;95164.13;5029726;28;20025;-69
2022/07/25 07:42:38;;;;;;;1999.90;999.90;;;;;;;29.57;41.91;95164.91;5002170;28;20018;-69
2022/07/25 07:45:10;;;;;;;1999.90;999.90;;;;;;;29.59;41.47;95135.88;5017980;28;20037;-69
2022/07/25 07:47:35;;;;;;;1999.90;999.90;;;;;;;28.75;42.95;95096.19;5010181;28;20068;-68
2022/07/25 07:50:00;;;;;;;1999.90;999.90;;;;;;;29.82;41.19;95121.22;5009893;28;20057;-69
2022/07/25 07:52:25;;;;;;;1999.90;999.90;;;;;;;29.95;41.57;95162.44;5018448;28;20083;-69
2022/07/25 07:57:34;;;;;;;1999.90;999.90;;;;;;;29.53;42.63;95167.69;5029384;28;20091;-69
2022/07/25 08:00:00;;;;;;;1999.90;999.90;;;;;;;30.58;40.73;95142.03;5012165;28;20453;-69
2022/07/25 08:02:25;;;;;;;1999.90;999.90;;;;;;;31.03;39.34;95134.50;5029093;28;20075;-68
2022/07/25 08:04:51;;;;;;;1999.90;999.90;;;;;;;30.78;38.50;95105.00;5029703;28;20053;-69
2022/07/25 08:07:16;;;;;;;1999.90;999.90;;;;;;;31.04;38.95;95158.00;5028665;28;20031;-69
2022/07/25 08:09:41;;;;;;;1999.90;999.90;;;;;;;30.94;38.67;95103.41;5029359;28;20041;-69
2022/07/25 08:12:07;;;;;;;1999.90;999.90;;;;;;;31.26;37.96;95113.44;5029261;28;20030;-69
2022/07/25 08:14:32;;;;;;;1999.90;999.90;;;;;;;31.96;37.53;95142.69;5028517;28;20021;-71
2022/07/25 08:16:57;;;;;;;1999.90;999.90;;;;;;;31.92;36.54;95142.03;5029612;28;20108;-69
2022/07/25 08:19:23;;;;;;;1999.90;999.90;;;;;;;30.89;37.45;95156.88;5028437;28;20033;-69
2022/07/25 08:21:48;;;;;;;1999.90;999.90;;;;;;;30.88;37.22;95138.09;5011770;28;20026;-69
2022/07/25 08:24:13;;;;;;;1999.90;999.90;;;;;;;31.36;36.36;95073.88;5028373;28;20029;-69
2022/07/25 08:26:38;;;;;;;1999.90;999.90;;;;;;;31.51;36.35;95116.19;5010561;28;20626;-69
2022/07/25 08:29:04;;;;;;;1999.90;999.90;;;;;;;31.34;36.12;95086.53;5028919;28;20029;-69
2022/07/25 08:31:29;;;;;;;1999.90;999.90;;;;;;;32.36;35.69;95122.91;5029413;28;20028;-70
2022/07/25 08:33:54;;;;;;;1999.90;999.90;;;;;;;32.34;34.77;95087.53;5011316;28;20124;-69
2022/07/25 08:36:20;;;;;;;1999.90;999.90;;;;;;;32.84;34.55;95115.28;5010515;28;20018;-69
2022/07/25 08:38:45;;;;;;;1999.90;999.90;;;;;;;32.70;34.27;95066.22;5011357;28;20416;-69
2022/07/25 08:41:10;;;;;;;1999.90;999.90;;;;;;;33.28;34.19;95120.78;5028555;28;20068;-69
2022/07/25 08:43:36;;;;;;;1999.90;999.90;;;;;;;33.18;33.41;95125.47;5028230;28;20025;-69
2022/07/25 08:46:04;;;;;;;1999.90;999.90;;;;;;;33.34;32.57;95132.75;5028105;28;20413;-69
2022/07/25 08:48:30;;;;;;;1999.90;999.90;;;;;;;32.51;33.37;95035.84;5015866;28;20033;-70
2022/07/25 08:50:56;;;;;;;1999.90;999.90;;;;;;;32.96;33.10;95034.56;5025948;28;20100;-69
2022/07/25 08:53:21;;;;;;;1999.90;999.90;;;;;;;33.77;32.57;95120.06;5010826;28;20109;-69
2022/07/25 08:55:47;;;;;;;1999.90;999.90;;;;;;;33.41;32.60;95118.69;5030962;28;20595;-69
2022/07/25 08:58:14;;;;;;;1999.90;999.90;;;;;;;32.56;34.04;95134.41;5031316;28;20032;-69
2022/07/25 09:00:40;;;;;;;1999.90;999.90;;;;;;;32.71;32.78;95068.56;5032089;28;20060;-70
2022/07/25 09:03:05;;;;;;;1999.90;999.90;;;;;;;32.16;32.77;95073.63;5030404;28;20060;-69
2022/07/25 09:05:32;;;;;;;1999.90;999.90;;;;;;;32.31;33.49;95118.72;5012558;28;20025;-69
2022/07/25 09:08:06;;;;;;;1999.90;999.90;;;;;;;32.79;31.77;95069.03;5014067;28;20037;-68
2022/07/25 09:10:31;;;;;;;1999.90;999.90;;;;;;;33.34;31.15;95089.41;5012364;28;20428;-70
2022/07/25 09:13:00;;;;;;;1999.90;999.90;;;;;;;33.35;31.07;95092.91;5013284;28;20029;-68
2022/07/25 09:15:28;;;;;;;1999.90;999.90;;;;;;;33.62;30.92;95084.75;5027216;28;20068;-68
2022/07/25 09:17:54;;;;;;;1999.90;999.90;;;;;;;33.04;31.53;95057.13;5029997;28;20041;-71
2022/07/25 09:20:20;;;;;;;1999.90;999.90;;;;;;;33.06;31.54;95082.97;5013990;28;20498;-68
2022/07/25 09:22:47;;;;;;;1999.90;999.90;;;;;;;33.64;30.97;95059.50;5010481;28;20115;-68
2022/07/25 09:25:24;;;;;;;1999.90;999.90;;;;;;;33.31;31.31;95108.81;5013004;28;20037;-69
2022/07/25 09:27:50;;;;;;;1999.90;999.90;;;;;;;32.62;31.99;95106.28;5014615;28;20059;-66
2022/07/25 09:30:15;;;;;;;1999.90;999.90;;;;;;;31.91;32.74;95068.22;5029209;28;20107;-68
2022/07/25 09:32:41;;;;;;;1999.90;999.90;;;;;;;32.12;31.85;95078.47;5012924;28;20029;-68
2022/07/25 09:35:06;;;;;;;1999.90;999.90;;;;;;;32.94;31.71;95086.59;5032174;28;20033;-69
2022/07/25 09:37:32;;;;;;;1999.90;999.90;;;;;;;33.07;31.14;95111.34;5014425;28;20466;-71
2022/07/25 09:39:57;;;;;;;1999.90;999.90;;;;;;;32.17;31.83;95066.91;5031302;28;20035;-69
2022/07/25 09:42:24;;;;;;;1999.90;999.90;;;;;;;32.25;30.78;95043.44;5013570;28;20105;-69
2022/07/25 09:45:05;;;;;;;1999.90;999.90;;;;;;;33.06;30.25;95080.22;5011543;28;20109;-68
2022/07/25 09:47:32;;;;;;;;;;;;;;;33.46;30.25;95100.81;5013088;28;20061;-68
2022/07/25 09:49:58;;;;;;;1999.90;999.90;;;;;;;33.21;30.22;95076.94;5028795;28;19924;-69
2022/07/25 09:52:23;;;;;;;1999.90;999.90;;;;;;;32.96;30.65;95097.16;5013264;28;20029;-69
2022/07/25 09:54:51;;;;;;;1999.90;999.90;;;;;;;33.76;30.08;95046.78;5029587;28;20155;-71
2022/07/25 09:57:16;;;;;;;1999.90;999.90;;;;;;;34.01;29.52;95076.91;5031390;28;20462;-68
2022/07/25 09:59:43;;;;;;;1999.90;999.90;;;;;;;32.97;30.89;95047.16;5011802;28;20033;-68
2022/07/25 10:02:19;;;;;;;1999.90;999.90;;;;;;;33.09;29.80;95093.13;5030520;28;20037;-68
2022/07/25 10:05:22;;;;;;;1999.90;999.90;;;;;;;33.01;30.63;95096.59;5013650;28;20029;-70
2022/07/25 10:07:51;;;;;;;1999.90;999.90;;;;;;;32.90;31.41;95093.47;5010114;28;20474;-70
2022/07/25 10:10:37;;;;;;;1999.90;999.90;;;;;;;33.65;29.09;95082.34;5012233;28;20060;-71
2022/07/25 10:13:14;;;;;;;1999.90;999.90;;;;;;;33.72;28.93;95055.22;5013228;28;20018;-71
2022/07/25 10:15:49;;;;;;;1999.90;999.90;;;;;;;33.94;28.32;95091.00;5012857;28;20040;-68
2022/07/25 10:18:17;;;;;;;1999.90;999.90;;;;;;;33.89;28.35;95053.72;5030343;28;20108;-70
2022/07/25 10:20:44;;;;;;;1999.90;999.90;;;;;;;34.39;27.45;95067.38;5031206;28;20446;-71
2022/07/25 10:23:24;;;;;;;1999.90;999.90;;;;;;;35.37;26.69;95088.25;5013147;28;20100;-71
2022/07/25 10:26:09;;;;;;;1999.90;999.90;;;;;;;34.63;27.18;95078.59;5011670;28;20116;-69
2022/07/25 10:28:40;;;;;;;1999.90;999.90;;;;;;;34.22;28.03;95055.13;5012368;28;20080;-71
2022/07/25 10:31:31;;;;;;;1999.90;999.90;;;;;;;33.69;27.95;95030.56;5006931;28;20044;-71
2022/07/25 10:33:59;;;;;;;1999.90;999.90;;;;;;;33.85;27.56;95033.03;5024425;28;20061;-71
2022/07/25 10:36:44;;;;;;;1999.90;999.90;;;;;;;34.08;27.23;95028.91;5010644;28;20105;-72
2022/07/25 10:39:12;;;;;;;1999.90;999.90;;;;;;;35.29;25.75;95042.06;5009874;28;20057;-70
2022/07/25 10:41:39;;;;;;;1999.90;999.90;;;;;;;35.03;26.38;95003.75;5011069;28;20145;-68
2022/07/25 10:44:11;;;;;;;1999.90;999.90;;;;;;;34.72;27.28;95064.03;4993241;28;20025;-66
2022/07/25 10:46:37;;;;;;;1999.90;999.90;;;;;;;34.10;28.09;95051.31;5027651;28;20083;-68
2022/07/25 10:49:04;;;;;;;1999.90;999.90;;;;;;;34.36;28.46;95057.28;5029751;28;20029;-70
2022/07/25 10:51:33;;;;;;;1999.90;999.90;;;;;;;34.32;28.33;95067.72;5012116;28;20036;-69
2022/07/25 10:53:59;;;;;;;1999.90;999.90;;;;;;;34.26;28.44;95048.22;5028611;28;20029;-69